createdAt,value
2023-01-18T00:00:40.233Z,-3.10
2023-01-18T00:03:11.359Z,-3.10
2023-01-18T00:05:43.899Z,-3.10
2023-01-18T00:08:12.641Z,-3.20
2023-01-18T00:10:40.047Z,-3.20
2023-01-18T00:13:06.869Z,-3.20
2023-01-18T00:15:34.986Z,-3.20
2023-01-18T00:18:02.976Z,-3.20
2023-01-18T00:20:30.763Z,-3.20
2023-01-18T00:23:00.222Z,-3.20
2023-01-18T00:25:28.559Z,-3.20
2023-01-18T00:27:55.761Z,-3.30
2023-01-18T00:30:27.051Z,-3.30
2023-01-18T00:32:58.893Z,-3.30
2023-01-18T00:35:26.190Z,-3.30
2023-01-18T00:37:53.881Z,-3.40
2023-01-18T00:40:23.638Z,-3.30
2023-01-18T00:43:08.834Z,-3.40
2023-01-18T00:45:35.615Z,-3.40
2023-01-18T00:48:02.709Z,-3.40
2023-01-18T00:50:29.683Z,-3.40
2023-01-18T00:52:58.613Z,-3.40
2023-01-18T00:55:26.411Z,-3.40
2023-01-18T00:57:53.350Z,-3.50
2023-01-18T01:00:24.281Z,-3.50
2023-01-18T01:02:51.726Z,-3.50
2023-01-18T01:05:44.582Z,-3.50
2023-01-18T01:08:17.424Z,-3.50
2023-01-18T01:10:49.822Z,-3.50
2023-01-18T01:13:38.484Z,-3.60
2023-01-18T01:16:29.045Z,-3.60
2023-01-18T01:19:15.452Z,-3.60
2023-01-18T01:22:00.990Z,-3.60
2023-01-18T01:24:46.489Z,-3.60
2023-01-18T01:27:13.886Z,-3.60
2023-01-18T01:29:40.943Z,-3.70
2023-01-18T01:32:07.980Z,-3.60
2023-01-18T01:34:34.889Z,-3.70
2023-01-18T01:37:02.969Z,-3.70
2023-01-18T01:39:30.481Z,-3.70
2023-01-18T01:41:57.264Z,-3.70
2023-01-18T01:44:24.469Z,-3.70
2023-01-18T01:46:52.763Z,-3.70
2023-01-18T01:49:40.072Z,-3.80
2023-01-18T01:52:14.771Z,-3.80
2023-01-18T01:54:53.687Z,-3.70
2023-01-18T01:57:46.748Z,-3.70
2023-01-18T02:00:23.099Z,-3.80
2023-01-18T02:03:03.345Z,-3.80
2023-01-18T02:05:33.907Z,-3.80
2023-01-18T02:08:03.192Z,-3.80
2023-01-18T02:10:30.796Z,-3.80
2023-01-18T02:12:59.117Z,-3.80
2023-01-18T02:15:36.563Z,-3.80
2023-01-18T02:18:10.808Z,-3.90
2023-01-18T02:21:08.586Z,-3.90
2023-01-18T02:24:16.691Z,-3.90
2023-01-18T02:27:05.850Z,-3.90
2023-01-18T02:29:47.456Z,-3.90
2023-01-18T02:32:27.535Z,-3.90
2023-01-18T02:35:14.025Z,-3.90
2023-01-18T02:37:40.637Z,-3.90
2023-01-18T02:40:23.889Z,-3.90
2023-01-18T02:43:09.198Z,-3.90
2023-01-18T02:46:04.717Z,-3.90
2023-01-18T02:48:41.499Z,-4.00
2023-01-18T02:51:08.643Z,-4.00
2023-01-18T02:53:41.590Z,-4.00
2023-01-18T02:56:16.705Z,-4.00
2023-01-18T02:58:57.369Z,-4.00
2023-01-18T03:01:44.118Z,-4.10
2023-01-18T03:04:28.953Z,-4.10
2023-01-18T03:07:10.551Z,-4.10
2023-01-18T03:09:38.321Z,-4.10
2023-01-18T03:12:26.875Z,-4.10
2023-01-18T03:15:08.528Z,-4.10
2023-01-18T03:17:44.646Z,-4.10
2023-01-18T03:20:18.401Z,-4.20
2023-01-18T03:23:30.010Z,-4.10
2023-01-18T03:25:59.224Z,-4.20
2023-01-18T03:28:51.582Z,-4.20
2023-01-18T03:31:58.919Z,-4.20
2023-01-18T03:35:07.993Z,-4.30
2023-01-18T03:37:41.064Z,-4.30
2023-01-18T03:40:18.241Z,-4.30
2023-01-18T03:43:03.540Z,-4.30
2023-01-18T03:45:37.886Z,-4.30
2023-01-18T03:48:07.119Z,-4.30
2023-01-18T03:51:08.238Z,-4.30
2023-01-18T03:53:40.463Z,-4.30
2023-01-18T03:56:23.773Z,-4.30
2023-01-18T03:58:56.321Z,-4.40
2023-01-18T04:01:23.424Z,-4.30
2023-01-18T04:03:50.201Z,-4.40
2023-01-18T04:06:17.061Z,-4.40
2023-01-18T04:08:43.743Z,-4.40
2023-01-18T04:11:10.471Z,-4.40
2023-01-18T04:13:37.145Z,-4.40
2023-01-18T04:16:04.837Z,-4.40
2023-01-18T04:18:31.688Z,-4.40
2023-01-18T04:20:58.827Z,-4.40
2023-01-18T04:23:25.868Z,-4.50
2023-01-18T04:25:52.496Z,-4.50
2023-01-18T04:28:25.241Z,-4.50
2023-01-18T04:30:53.263Z,-4.50
2023-01-18T04:33:20.645Z,-4.50
2023-01-18T04:35:48.185Z,-4.50
2023-01-18T04:38:15.578Z,-4.50
2023-01-18T04:40:42.835Z,-4.60
2023-01-18T04:43:09.539Z,-4.50
2023-01-18T04:45:36.372Z,-4.60
2023-01-18T04:48:03.246Z,-4.60
2023-01-18T04:50:30.171Z,-4.60
2023-01-18T04:52:58.168Z,-4.60
2023-01-18T04:55:25.193Z,-4.60
2023-01-18T04:57:57.732Z,-4.60
2023-01-18T05:00:24.612Z,-4.60
2023-01-18T05:02:51.373Z,-4.70
2023-01-18T05:05:18.231Z,-4.70
2023-01-18T05:07:44.909Z,-4.70
2023-01-18T05:10:12.350Z,-4.70
2023-01-18T05:12:39.174Z,-4.70
2023-01-18T05:15:06.252Z,-4.70
2023-01-18T05:17:35.150Z,-4.70
2023-01-18T05:20:12.557Z,-4.70
2023-01-18T05:22:39.342Z,-4.70
2023-01-18T05:25:06.795Z,-4.70
2023-01-18T05:27:34.075Z,-4.80
2023-01-18T05:30:01.914Z,-4.80
2023-01-18T05:32:28.662Z,-4.80
2023-01-18T05:34:55.250Z,-4.80
2023-01-18T05:37:21.900Z,-4.80
2023-01-18T05:39:48.534Z,-4.80
2023-01-18T05:42:15.191Z,-4.80
2023-01-18T05:44:41.818Z,-4.80
2023-01-18T05:47:08.716Z,-4.80
2023-01-18T05:49:35.333Z,-4.80
2023-01-18T05:52:04.192Z,-4.80
2023-01-18T05:54:30.853Z,-4.90
2023-01-18T05:56:58.303Z,-4.90
2023-01-18T05:59:25.044Z,-4.90
2023-01-18T06:01:51.801Z,-4.80
2023-01-18T06:04:18.628Z,-4.80
2023-01-18T06:06:45.286Z,-4.70
2023-01-18T06:09:11.989Z,-4.60
2023-01-18T06:11:38.683Z,-4.60
2023-01-18T06:14:05.627Z,-4.60
2023-01-18T06:16:32.417Z,-4.50
2023-01-18T06:18:59.070Z,-4.50
2023-01-18T06:21:26.227Z,-4.50
2023-01-18T06:23:52.861Z,-4.40
2023-01-18T06:26:19.594Z,-4.30
2023-01-18T06:28:46.251Z,-4.30
2023-01-18T06:31:12.922Z,-4.20
2023-01-18T06:33:39.797Z,-4.20
2023-01-18T06:36:06.923Z,-4.10
2023-01-18T06:38:33.903Z,-4.10
2023-01-18T06:41:00.553Z,-4.20
2023-01-18T06:43:27.213Z,-4.20
2023-01-18T06:45:55.503Z,-4.20
2023-01-18T06:48:24.136Z,-4.20
2023-01-18T06:50:54.416Z,-4.20
2023-01-18T06:53:21.346Z,-4.20
2023-01-18T06:55:59.034Z,-4.20
2023-01-18T06:58:26.684Z,-4.30
2023-01-18T07:00:58.070Z,-4.30
2023-01-18T07:03:25.807Z,-4.30
2023-01-18T07:05:58.704Z,-4.30
2023-01-18T07:08:26.893Z,-4.30
2023-01-18T07:10:54.450Z,-4.30
2023-01-18T07:13:22.040Z,-4.40
2023-01-18T07:16:00.768Z,-4.40
2023-01-18T07:18:29.527Z,-4.40
2023-01-18T07:21:03.478Z,-4.40
2023-01-18T07:23:30.361Z,-4.40
2023-01-18T07:26:08.595Z,-4.50
2023-01-18T07:28:36.269Z,-4.50
2023-01-18T07:31:04.003Z,-4.50
2023-01-18T07:33:31.231Z,-4.50
2023-01-18T07:35:58.448Z,-4.50
2023-01-18T07:38:25.907Z,-4.50
2023-01-18T07:41:02.920Z,-4.50
2023-01-18T07:43:31.762Z,-4.50
2023-01-18T07:45:59.421Z,-4.60
2023-01-18T07:48:27.018Z,-4.60
2023-01-18T07:50:58.446Z,-4.50
2023-01-18T07:53:26.340Z,-4.60
2023-01-18T07:55:53.278Z,-4.60
2023-01-18T07:58:20.475Z,-4.60
2023-01-18T08:00:47.294Z,-4.60
2023-01-18T08:03:15.853Z,-4.60
2023-01-18T08:05:43.997Z,-4.60
2023-01-18T08:08:11.920Z,-4.60
2023-01-18T08:10:39.306Z,-4.60
2023-01-18T08:13:09.036Z,-4.60
2023-01-18T08:15:37.165Z,-4.60
2023-01-18T08:18:05.383Z,-4.60
2023-01-18T08:20:32.745Z,-4.60
2023-01-18T08:23:00.678Z,-4.60
2023-01-18T08:25:29.785Z,-4.50
2023-01-18T08:28:00.860Z,-4.50
2023-01-18T08:30:33.790Z,-4.50
2023-01-18T08:33:02.887Z,-4.50
2023-01-18T08:35:49.677Z,-4.50
2023-01-18T08:38:16.776Z,-4.50
2023-01-18T08:40:43.581Z,-4.50
2023-01-18T08:43:11.728Z,-4.50
2023-01-18T08:45:38.416Z,-4.40
2023-01-18T08:48:10.755Z,-4.40
2023-01-18T08:50:39.212Z,-4.40
2023-01-18T08:53:08.541Z,-4.40
2023-01-18T08:55:36.560Z,-4.30
2023-01-18T08:58:03.806Z,-4.30
2023-01-18T09:00:30.685Z,-4.30
2023-01-18T09:02:58.868Z,-4.30
2023-01-18T09:05:27.097Z,-4.20
2023-01-18T09:07:54.851Z,-4.20
2023-01-18T09:10:22.297Z,-4.20
2023-01-18T09:12:48.935Z,-4.10
2023-01-18T09:15:15.709Z,-4.10
2023-01-18T09:17:42.377Z,-4.10
2023-01-18T09:20:11.993Z,-4.00
2023-01-18T09:22:39.140Z,-4.00
2023-01-18T09:25:06.274Z,-3.90
2023-01-18T09:27:33.553Z,-3.90
2023-01-18T09:30:00.273Z,-3.80
2023-01-18T09:32:27.483Z,-3.80
2023-01-18T09:34:54.857Z,-3.80
2023-01-18T09:37:21.978Z,-3.70
2023-01-18T09:39:52.225Z,-3.70
2023-01-18T09:42:28.512Z,-3.60
2023-01-18T09:44:59.781Z,-3.60
2023-01-18T09:47:35.027Z,-3.50
2023-01-18T09:50:13.315Z,-3.50
2023-01-18T09:52:57.206Z,-3.40
2023-01-18T09:55:47.662Z,-3.40
2023-01-18T09:58:41.497Z,-3.30
2023-01-18T10:01:16.221Z,-3.30
2023-01-18T10:04:05.023Z,-3.20
2023-01-18T10:06:45.846Z,-3.10
2023-01-18T10:09:16.128Z,-3.10
2023-01-18T10:11:47.425Z,-3.10
2023-01-18T10:14:38.354Z,-3.00
2023-01-18T10:17:14.516Z,-3.00
2023-01-18T10:19:41.518Z,-2.90
2023-01-18T10:22:38.424Z,-2.80
2023-01-18T10:25:29.063Z,-2.70
2023-01-18T10:27:58.874Z,-2.70
2023-01-18T10:30:45.450Z,-2.60
2023-01-18T10:33:25.656Z,-2.60
2023-01-18T10:36:00.428Z,-2.50
2023-01-18T10:38:29.349Z,-2.40
2023-01-18T10:40:59.287Z,-2.40
2023-01-18T10:43:28.690Z,-2.30
2023-01-18T10:45:56.276Z,-2.30
2023-01-18T10:48:32.337Z,-2.20
2023-01-18T10:51:03.365Z,-2.10
2023-01-18T10:53:36.477Z,-2.00
2023-01-18T10:56:12.642Z,-2.00
2023-01-18T10:58:57.671Z,-1.90
2023-01-18T11:01:33.519Z,-1.80
2023-01-18T11:04:22.107Z,-1.70
2023-01-18T11:06:51.704Z,-1.70
2023-01-18T11:09:42.709Z,-1.60
2023-01-18T11:12:34.166Z,-1.50
2023-01-18T11:15:22.181Z,-1.40
2023-01-18T11:17:56.164Z,-1.30
2023-01-18T11:20:34.180Z,-1.30
2023-01-18T11:23:16.047Z,-1.20
2023-01-18T11:25:51.195Z,-1.10
2023-01-18T11:28:22.017Z,-1.10
2023-01-18T11:30:54.109Z,-1.00
2023-01-18T11:33:23.217Z,-0.90
2023-01-18T11:35:54.968Z,-0.90
2023-01-18T11:38:27.414Z,-0.80
2023-01-18T11:41:21.031Z,-0.80
2023-01-18T11:44:00.162Z,-0.70
2023-01-18T11:46:38.968Z,-0.60
2023-01-18T11:49:45.060Z,-0.50
2023-01-18T11:52:42.303Z,-0.50
2023-01-18T11:55:47.493Z,-0.40
2023-01-18T11:58:25.331Z,-0.30
2023-01-18T12:01:21.455Z,-0.30
2023-01-18T12:04:00.434Z,-0.30
2023-01-18T12:06:50.623Z,-0.20
2023-01-18T12:09:22.998Z,-0.10
2023-01-18T12:12:19.234Z,-0.10
2023-01-18T12:15:19.283Z,0.00
2023-01-18T12:18:11.539Z,0.00
2023-01-18T12:20:45.540Z,0.10
2023-01-18T12:23:42.289Z,0.20
2023-01-18T12:26:46.599Z,0.20
2023-01-18T12:29:38.128Z,0.30
2023-01-18T12:32:23.335Z,0.30
2023-01-18T12:35:24.778Z,0.40
2023-01-18T12:38:07.115Z,0.50
2023-01-18T12:40:42.849Z,0.50
2023-01-18T12:43:35.503Z,0.60
2023-01-18T12:46:10.140Z,0.60
2023-01-18T12:48:53.001Z,0.70
2023-01-18T12:51:23.831Z,0.80
2023-01-18T12:53:53.474Z,0.80
2023-01-18T12:56:24.032Z,0.90
2023-01-18T12:58:59.466Z,0.90
2023-01-18T13:01:30.699Z,1.00
2023-01-18T13:04:06.002Z,1.10
2023-01-18T13:06:35.060Z,1.10
2023-01-18T13:09:06.533Z,1.10
2023-01-18T13:11:41.482Z,1.20
2023-01-18T13:14:14.805Z,1.20
2023-01-18T13:17:04.585Z,1.30
2023-01-18T13:20:00.151Z,1.30
2023-01-18T13:23:00.396Z,1.40
2023-01-18T13:25:32.272Z,1.40
2023-01-18T13:28:23.742Z,1.40
2023-01-18T13:31:01.853Z,1.40
2023-01-18T13:33:37.505Z,1.50
2023-01-18T13:36:14.177Z,1.50
2023-01-18T13:38:54.591Z,1.50
2023-01-18T13:41:26.899Z,1.50
2023-01-18T13:44:04.211Z,1.60
2023-01-18T13:46:35.206Z,1.60
2023-01-18T13:49:43.501Z,1.60
2023-01-18T13:52:30.381Z,1.60
2023-01-18T13:54:58.564Z,1.70
2023-01-18T13:57:25.221Z,1.70
2023-01-18T13:59:52.295Z,1.70
2023-01-18T14:02:27.732Z,1.70
2023-01-18T14:05:06.369Z,1.70
2023-01-18T14:07:44.171Z,1.70
2023-01-18T14:10:36.300Z,1.60
2023-01-18T14:13:05.971Z,1.60
2023-01-18T14:15:53.028Z,1.60
2023-01-18T14:18:26.682Z,1.60
2023-01-18T14:21:11.914Z,1.50
2023-01-18T14:23:45.918Z,1.50
2023-01-18T14:26:19.794Z,1.50
2023-01-18T14:28:51.619Z,1.50
2023-01-18T14:31:32.661Z,1.50
2023-01-18T14:34:34.995Z,1.50
2023-01-18T14:37:03.631Z,1.50
2023-01-18T14:39:32.477Z,1.50
2023-01-18T14:42:04.975Z,1.50
2023-01-18T14:44:56.846Z,1.50
2023-01-18T14:47:28.906Z,1.50
2023-01-18T14:49:55.732Z,1.50
2023-01-18T14:52:26.868Z,1.50
2023-01-18T14:54:55.545Z,1.50
2023-01-18T14:57:23.751Z,1.50
2023-01-18T14:59:53.387Z,1.50
2023-01-18T15:02:24.806Z,1.60
2023-01-18T15:04:52.414Z,1.60
2023-01-18T15:07:30.718Z,1.60
2023-01-18T15:09:58.577Z,1.60
2023-01-18T15:12:31.259Z,1.70
2023-01-18T15:15:06.503Z,1.70
2023-01-18T15:17:35.571Z,1.70
2023-01-18T15:20:20.507Z,1.70
2023-01-18T15:22:50.590Z,1.70
2023-01-18T15:25:26.698Z,1.70
2023-01-18T15:27:54.441Z,1.70
2023-01-18T15:30:23.819Z,1.70
2023-01-18T15:32:58.129Z,1.70
2023-01-18T15:35:25.805Z,1.70
2023-01-18T15:37:52.583Z,1.60
2023-01-18T15:40:19.337Z,1.60
2023-01-18T15:42:51.530Z,1.60
2023-01-18T15:45:30.542Z,1.60
2023-01-18T15:48:00.778Z,1.60
2023-01-18T15:50:44.335Z,1.50
2023-01-18T15:53:38.544Z,1.50
2023-01-18T15:56:14.728Z,1.50
2023-01-18T15:58:44.593Z,1.50
2023-01-18T16:01:15.810Z,1.40
2023-01-18T16:03:48.205Z,1.40
2023-01-18T16:06:22.717Z,1.40
2023-01-18T16:09:11.909Z,1.40
2023-01-18T16:11:46.386Z,1.30
2023-01-18T16:14:28.290Z,1.30
2023-01-18T16:16:57.154Z,1.30
2023-01-18T16:19:28.355Z,1.20
2023-01-18T16:22:01.506Z,1.20
2023-01-18T16:24:45.688Z,1.20
2023-01-18T16:27:21.725Z,1.20
2023-01-18T16:29:56.038Z,1.10
2023-01-18T16:32:27.591Z,1.10
2023-01-18T16:34:59.761Z,1.10
2023-01-18T16:37:26.927Z,1.10
2023-01-18T16:39:55.441Z,1.00
2023-01-18T16:42:29.551Z,1.00
2023-01-18T16:45:04.159Z,1.00
2023-01-18T16:47:30.799Z,0.90
2023-01-18T16:49:59.202Z,0.90
2023-01-18T16:52:26.261Z,0.90
2023-01-18T16:54:52.905Z,0.90
2023-01-18T16:57:21.694Z,0.90
2023-01-18T16:59:49.150Z,0.80
2023-01-18T17:02:16.046Z,0.80
2023-01-18T17:04:44.779Z,0.80
2023-01-18T17:07:11.500Z,0.80
2023-01-18T17:09:47.860Z,0.80
2023-01-18T17:12:15.798Z,0.70
2023-01-18T17:14:42.462Z,0.70
2023-01-18T17:17:10.404Z,0.70
2023-01-18T17:19:37.927Z,0.60
2023-01-18T17:22:04.996Z,0.60
2023-01-18T17:24:31.692Z,0.60
2023-01-18T17:26:58.391Z,0.50
2023-01-18T17:29:25.131Z,0.50
2023-01-18T17:31:52.974Z,0.50
2023-01-18T17:36:50.254Z,0.40
2023-01-18T17:39:17.136Z,0.40
2023-01-18T17:41:43.989Z,0.30
2023-01-18T17:44:10.664Z,0.30
2023-01-18T17:46:37.525Z,0.20
2023-01-18T17:49:04.621Z,0.20
2023-01-18T17:51:31.378Z,0.10
2023-01-18T17:54:00.828Z,0.10
2023-01-18T17:56:28.849Z,0.10
2023-01-18T17:58:55.601Z,0.00
2023-01-18T18:01:22.809Z,0.00
2023-01-18T18:03:52.162Z,-0.10
2023-01-18T18:06:30.322Z,-0.10
2023-01-18T18:08:57.822Z,-0.20
2023-01-18T18:11:24.694Z,-0.20
2023-01-18T18:13:51.397Z,-0.20
2023-01-18T18:16:18.773Z,-0.30
2023-01-18T18:18:46.111Z,-0.30
2023-01-18T18:21:13.156Z,-0.30
2023-01-18T18:23:39.894Z,-0.40
2023-01-18T18:26:06.677Z,-0.40
2023-01-18T18:28:34.089Z,-0.40
2023-01-18T18:31:03.907Z,-0.50
2023-01-18T18:33:30.638Z,-0.50
2023-01-18T18:35:57.951Z,-0.50
2023-01-18T18:38:26.572Z,-0.60
2023-01-18T18:40:54.449Z,-0.60
2023-01-18T18:43:21.387Z,-0.60
2023-01-18T18:45:48.187Z,-0.70
2023-01-18T18:48:14.919Z,-0.70
2023-01-18T18:50:41.666Z,-0.70
2023-01-18T18:53:08.433Z,-0.80
2023-01-18T18:55:35.333Z,-0.80
2023-01-18T18:58:02.986Z,-0.90
2023-01-18T19:00:30.145Z,-0.90
2023-01-18T19:03:06.111Z,-0.90
2023-01-18T19:05:34.336Z,-1.00
2023-01-18T19:08:03.342Z,-1.00
2023-01-18T19:10:30.298Z,-1.00
2023-01-18T19:12:57.877Z,-1.10
2023-01-18T19:15:25.343Z,-1.10
2023-01-18T19:17:52.949Z,-1.10
2023-01-18T19:20:20.535Z,-1.10
2023-01-18T19:22:48.118Z,-1.20
2023-01-18T19:25:15.092Z,-1.30
2023-01-18T19:27:42.186Z,-1.30
2023-01-18T19:30:12.998Z,-1.30
2023-01-18T19:32:39.958Z,-1.40
2023-01-18T19:35:07.243Z,-1.40
2023-01-18T19:37:34.006Z,-1.40
2023-01-18T19:40:00.687Z,-1.40
2023-01-18T19:42:27.370Z,-1.50
2023-01-18T19:44:59.204Z,-1.50
2023-01-18T19:47:26.174Z,-1.50
2023-01-18T19:49:55.684Z,-1.60
2023-01-18T19:52:22.414Z,-1.60
2023-01-18T19:54:49.179Z,-1.70
2023-01-18T19:57:16.219Z,-1.70
2023-01-18T19:59:42.998Z,-1.70
2023-01-18T20:02:10.436Z,-1.70
2023-01-18T20:04:37.747Z,-1.80
2023-01-18T20:07:04.820Z,-1.80
2023-01-18T20:09:42.688Z,-1.80
2023-01-18T20:12:12.378Z,-1.90
2023-01-18T20:14:41.879Z,-1.90
2023-01-18T20:17:11.055Z,-1.90
2023-01-18T20:19:37.725Z,-2.00
2023-01-18T20:22:04.451Z,-2.00
2023-01-18T20:24:31.264Z,-2.00
2023-01-18T20:27:14.993Z,-2.00
2023-01-18T20:29:43.071Z,-2.10
2023-01-18T20:32:16.160Z,-2.10
2023-01-18T20:34:47.448Z,-2.20
2023-01-18T20:37:15.234Z,-2.20
2023-01-18T20:39:42.358Z,-2.20
2023-01-18T20:42:09.277Z,-2.30
2023-01-18T20:44:36.034Z,-2.30
2023-01-18T20:47:03.126Z,-2.30
2023-01-18T20:49:38.615Z,-2.40
2023-01-18T20:52:07.413Z,-2.40
2023-01-18T20:54:37.724Z,-2.40
2023-01-18T20:57:10.032Z,-2.50
2023-01-18T20:59:36.740Z,-2.50
2023-01-18T21:02:03.845Z,-2.50
2023-01-18T21:04:30.837Z,-2.50
2023-01-18T21:06:57.714Z,-2.60
2023-01-18T21:09:25.355Z,-2.60
2023-01-18T21:11:52.128Z,-2.60
2023-01-18T21:14:18.795Z,-2.60
2023-01-18T21:16:45.721Z,-2.60
2023-01-18T21:19:12.822Z,-2.60
2023-01-18T21:21:46.236Z,-2.60
2023-01-18T21:24:13.226Z,-2.60
2023-01-18T21:26:40.050Z,-2.60
2023-01-18T21:29:06.791Z,-2.60
2023-01-18T21:31:33.587Z,-2.60
2023-01-18T21:34:00.409Z,-2.60
2023-01-18T21:36:27.071Z,-2.70
2023-01-18T21:38:53.824Z,-2.60
2023-01-18T21:41:39.288Z,-2.60
2023-01-18T21:44:24.619Z,-2.60
2023-01-18T21:46:52.261Z,-2.60
2023-01-18T21:52:44.009Z,-2.60
2023-01-18T21:55:10.802Z,-2.60
2023-01-18T21:57:38.681Z,-2.60
2023-01-18T22:00:06.558Z,-2.60
2023-01-18T22:02:34.256Z,-2.60
2023-01-18T22:05:01.534Z,-2.60
2023-01-18T22:07:30.117Z,-2.60
2023-01-18T22:10:05.973Z,-2.60
2023-01-18T22:12:35.294Z,-2.60
2023-01-18T22:15:03.155Z,-2.60
2023-01-18T22:17:30.417Z,-2.60
2023-01-18T22:19:57.547Z,-2.50
2023-01-18T22:22:24.266Z,-2.50
2023-01-18T22:24:50.906Z,-2.50
2023-01-18T22:27:17.625Z,-2.50
2023-01-18T22:29:44.403Z,-2.50
2023-01-18T22:32:11.079Z,-2.50
2023-01-18T22:34:37.747Z,-2.40
2023-01-18T22:37:05.608Z,-2.40
2023-01-18T22:39:32.436Z,-2.40
2023-01-18T22:41:59.116Z,-2.40
2023-01-18T22:44:25.798Z,-2.40
2023-01-18T22:46:52.503Z,-2.30
2023-01-18T22:49:19.355Z,-2.30
2023-01-18T22:51:46.164Z,-2.30
2023-01-18T22:54:13.346Z,-2.20
2023-01-18T22:56:40.077Z,-2.20
2023-01-18T22:59:08.047Z,-2.20
2023-01-18T23:01:35.179Z,-2.20
2023-01-18T23:04:03.928Z,-2.20
2023-01-18T23:06:45.488Z,-2.10
2023-01-18T23:09:14.321Z,-2.10
2023-01-18T23:11:41.311Z,-2.10
2023-01-18T23:14:26.545Z,-2.10
2023-01-18T23:17:11.888Z,-2.00
2023-01-18T23:19:38.821Z,-2.00
2023-01-18T23:22:08.273Z,-2.00
2023-01-18T23:24:36.827Z,-2.00
2023-01-18T23:27:10.035Z,-1.90
2023-01-18T23:29:37.389Z,-1.90
2023-01-18T23:32:04.363Z,-1.90
2023-01-18T23:34:31.055Z,-1.90
2023-01-18T23:36:57.745Z,-1.80
2023-01-18T23:39:43.004Z,-1.80
2023-01-18T23:42:28.221Z,-1.80
2023-01-18T23:45:13.747Z,-1.80
2023-01-18T23:47:59.441Z,-1.70
2023-01-18T23:50:44.988Z,-1.70
2023-01-18T23:53:31.604Z,-1.70
2023-01-18T23:55:58.913Z,-1.70
2023-01-18T23:58:25.718Z,-1.60
